Time;durP1;ratioP1;P1;durP2;ratioP2;P2;SDS_P1;SDS_P2;PMS_P1;PMS_P2;Temp;Humidity;BMP_temperature;BMP_pressure;BME280_temperature;BME280_humidity;BME280_pressure;Samples;Min_cycle;Max_cycle;Signal;HPM_P1;HPM_P2
2021/09/04 00:01:18;;;;;;;12.00;10.30;;;15.90;79.50;;;;;;6248224;28;20911;-78
2021/09/04 00:04:19;;;;;;;11.55;9.38;;;15.80;79.40;;;;;;6249263;28;20473;-79
2021/09/04 00:07:21;;;;;;;10.57;9.33;;;15.80;79.30;;;;;;6248723;28;20928;-78
2021/09/04 00:10:23;;;;;;;13.57;9.65;;;15.70;79.50;;;;;;6249362;28;20449;-78
2021/09/04 00:13:26;;;;;;;11.47;9.53;;;15.70;80.20;;;;;;6248975;28;20417;-78
2021/09/04 00:16:28;;;;;;;10.80;9.70;;;15.60;80.70;;;;;;6248717;28;20443;-78
2021/09/04 00:19:30;;;;;;;12.07;9.77;;;15.50;80.90;;;;;;6238510;28;20507;-78
2021/09/04 00:22:32;;;;;;;10.70;9.48;;;15.60;80.60;;;;;;6211276;28;20509;-78
2021/09/04 00:25:33;;;;;;;11.07;9.48;;;15.80;80.00;;;;;;6200607;28;20442;-78
2021/09/04 00:28:37;;;;;;;12.60;9.45;;;15.50;80.20;;;;;;6200221;28;21064;-78
2021/09/04 00:31:38;;;;;;;12.57;9.25;;;15.40;80.00;;;;;;6200171;28;20422;-78
2021/09/04 00:34:40;;;;;;;9.70;8.70;;;15.40;80.20;;;;;;6199928;28;20900;-78
2021/09/04 00:37:42;;;;;;;14.50;9.45;;;15.40;80.00;;;;;;6205280;28;20418;-78
2021/09/04 00:40:44;;;;;;;10.65;8.88;;;15.30;80.00;;;;;;6205546;28;20434;-78
2021/09/04 00:43:49;;;;;;;10.68;8.35;;;15.30;80.40;;;;;;6205124;28;20572;-78
2021/09/04 00:47:00;;;;;;;12.27;9.50;;;15.20;80.30;;;;;;6204496;28;20505;-79
2021/09/04 00:50:02;;;;;;;9.50;8.50;;;15.20;80.10;;;;;;6235223;28;20505;-78
2021/09/04 00:53:05;;;;;;;9.57;8.35;;;15.10;80.20;;;;;;6252032;28;20553;-78
2021/09/04 00:56:06;;;;;;;10.50;8.45;;;15.10;80.30;;;;;;6229919;28;20428;-78
2021/09/04 00:59:10;;;;;;;9.18;8.13;;;15.00;80.40;;;;;;6253567;28;20864;-78
2021/09/04 01:02:12;;;;;;;8.98;8.05;;;15.00;80.50;;;;;;6253455;28;20439;-79
2021/09/04 01:05:14;;;;;;;9.68;7.75;;;14.90;80.50;;;;;;6254139;28;20477;-78
2021/09/04 01:08:16;;;;;;;9.93;8.93;;;15.00;80.30;;;;;;6257308;28;20514;-78
2021/09/04 01:11:18;;;;;;;9.98;8.88;;;15.00;79.90;;;;;;6252648;28;20546;-79
2021/09/04 01:14:25;;;;;;;11.48;8.80;;;14.90;80.30;;;;;;6251745;28;20443;-78
2021/09/04 01:17:27;;;;;;;9.43;8.43;;;14.90;80.50;;;;;;6249563;28;20436;-78
2021/09/04 01:20:29;;;;;;;10.82;7.72;;;14.90;80.10;;;;;;6236976;28;20439;-78
2021/09/04 01:23:30;;;;;;;10.93;9.60;;;14.90;79.70;;;;;;6216894;28;20424;-78
2021/09/04 01:26:34;;;;;;;11.53;10.13;;;14.80;79.60;;;;;;6226518;28;21131;-78
2021/09/04 01:29:36;;;;;;;9.30;8.18;;;14.80;80.80;;;;;;6226113;28;20491;-78
2021/09/04 01:32:38;;;;;;;12.88;9.60;;;14.80;80.80;;;;;;6227279;28;20433;-78
2021/09/04 01:35:40;;;;;;;11.85;9.30;;;14.90;81.20;;;;;;6226599;28;20508;-78
2021/09/04 01:38:41;;;;;;;9.60;8.20;;;14.80;80.80;;;;;;6226823;28;20503;-78
2021/09/04 01:41:44;;;;;;;10.55;7.97;;;14.80;81.80;;;;;;6226281;28;20472;-78
2021/09/04 01:44:46;;;;;;;9.52;8.05;;;14.80;80.80;;;;;;6226937;28;20884;-78
2021/09/04 01:47:48;;;;;;;9.45;8.45;;;14.80;80.40;;;;;;6226070;28;20423;-78
2021/09/04 01:50:50;;;;;;;12.55;9.18;;;14.70;80.50;;;;;;6239629;28;20859;-79
2021/09/04 01:53:52;;;;;;;9.82;8.80;;;14.70;79.60;;;;;;6251186;28;20459;-79
2021/09/04 01:56:55;;;;;;;11.85;9.85;;;14.60;80.00;;;;;;6250246;28;20920;-79
2021/09/04 01:59:57;;;;;;;8.95;8.05;;;14.60;80.20;;;;;;6250766;28;20522;-79
2021/09/04 02:02:59;;;;;;;10.33;7.80;;;14.60;80.70;;;;;;6250453;28;21136;-79
2021/09/04 02:06:01;;;;;;;10.10;8.00;;;14.60;80.70;;;;;;6250410;28;20477;-78
2021/09/04 02:09:03;;;;;;;11.33;9.00;;;14.50;80.30;;;;;;6250707;28;20488;-78
2021/09/04 02:12:07;;;;;;;10.00;8.85;;;14.50;80.70;;;;;;6251542;28;20524;-78
2021/09/04 02:15:10;;;;;;;9.48;8.60;;;14.50;80.40;;;;;;6250424;28;20923;-78
2021/09/04 02:18:12;;;;;;;11.32;9.40;;;14.50;80.10;;;;;;6243129;28;20409;-79
2021/09/04 02:21:14;;;;;;;11.43;8.20;;;14.40;80.10;;;;;;6225031;28;20441;-76
2021/09/04 02:24:15;;;;;;;10.27;8.00;;;14.40;80.50;;;;;;6206382;28;20438;-75
2021/09/04 02:27:18;;;;;;;8.03;6.93;;;14.40;80.40;;;;;;6197345;28;20611;-76
2021/09/04 02:30:20;;;;;;;11.10;7.90;;;14.40;79.80;;;;;;6197489;28;20502;-76
2021/09/04 02:33:22;;;;;;;8.70;7.45;;;14.40;80.30;;;;;;6197313;28;20418;-76
2021/09/04 02:36:24;;;;;;;10.32;8.73;;;14.30;80.30;;;;;;6197538;28;20474;-76
2021/09/04 02:39:26;;;;;;;9.98;8.63;;;14.30;80.00;;;;;;6197441;28;20974;-76
2021/09/04 02:42:29;;;;;;;8.35;7.43;;;14.30;79.70;;;;;;6197005;28;20516;-76
2021/09/04 02:45:31;;;;;;;8.40;7.50;;;14.20;80.20;;;;;;6196760;28;20833;-76
2021/09/04 02:48:33;;;;;;;8.38;7.47;;;14.20;80.40;;;;;;6210512;28;20520;-76
2021/09/04 02:51:37;;;;;;;13.10;8.43;;;14.20;80.20;;;;;;6239352;28;20450;-78
2021/09/04 02:54:39;;;;;;;10.02;8.43;;;14.20;80.20;;;;;;6249432;28;20796;-78
2021/09/04 02:57:42;;;;;;;9.02;8.13;;;14.10;80.10;;;;;;6249264;28;20446;-78
2021/09/04 03:00:44;;;;;;;13.90;8.70;;;14.10;81.00;;;;;;6250015;28;20521;-78
2021/09/04 03:03:46;;;;;;;10.88;8.43;;;14.10;80.40;;;;;;6250988;28;20415;-78
2021/09/04 03:06:47;;;;;;;11.15;8.18;;;14.00;80.20;;;;;;6250217;28;20502;-78
2021/09/04 03:09:50;;;;;;;11.02;8.52;;;14.00;80.10;;;;;;6249663;28;20908;-78
2021/09/04 03:12:53;;;;;;;9.63;7.75;;;14.00;80.20;;;;;;6250511;28;20537;-78
2021/09/04 03:15:55;;;;;;;12.70;8.40;;;14.10;79.80;;;;;;6250826;28;20521;-78
2021/09/04 03:18:56;;;;;;;8.27;7.47;;;14.00;80.60;;;;;;6242505;28;20415;-78
2021/09/04 03:21:58;;;;;;;10.82;8.70;;;14.00;80.80;;;;;;6242517;28;20498;-78
2021/09/04 03:25:00;;;;;;;12.25;8.60;;;14.00;80.80;;;;;;6220677;28;20872;-78
2021/09/04 03:28:04;;;;;;;13.23;8.23;;;14.00;80.60;;;;;;6226043;28;20527;-78
2021/09/04 03:31:05;;;;;;;8.82;6.93;;;14.00;80.10;;;;;;6229138;28;20416;-79
2021/09/04 03:34:07;;;;;;;10.90;8.43;;;13.90;80.00;;;;;;6228463;28;20834;-79
2021/09/04 03:37:09;;;;;;;10.00;7.97;;;13.90;80.00;;;;;;6227981;28;20961;-79
2021/09/04 03:40:11;;;;;;;10.50;8.87;;;13.90;80.00;;;;;;6227940;28;20432;-79
2021/09/04 03:43:15;;;;;;;10.82;8.20;;;13.80;80.70;;;;;;6227354;28;20429;-78
2021/09/04 03:46:16;;;;;;;10.07;8.95;;;13.80;81.10;;;;;;6224548;28;20427;-78
2021/09/04 03:49:18;;;;;;;10.02;8.30;;;13.80;80.50;;;;;;6225811;28;20478;-78
2021/09/04 03:52:20;;;;;;;10.68;8.60;;;13.70;80.40;;;;;;6243848;28;20467;-78
2021/09/04 03:55:22;;;;;;;10.55;7.60;;;13.70;81.00;;;;;;6251693;28;20565;-78
2021/09/04 03:58:25;;;;;;;8.82;7.93;;;13.70;81.00;;;;;;6253210;28;20450;-79
2021/09/04 04:01:27;;;;;;;8.63;7.68;;;13.70;81.00;;;;;;6252064;28;20565;-78
2021/09/04 04:04:29;;;;;;;8.52;7.60;;;13.70;80.80;;;;;;6253302;28;20497;-78
2021/09/04 04:07:31;;;;;;;9.45;8.40;;;13.70;80.60;;;;;;6250986;28;20454;-78
2021/09/04 04:10:33;;;;;;;10.02;7.53;;;13.70;80.40;;;;;;6249363;28;20427;-79
2021/09/04 04:13:36;;;;;;;12.50;7.80;;;13.60;80.00;;;;;;6250702;28;20414;-78
2021/09/04 04:16:38;;;;;;;7.68;6.88;;;13.60;79.80;;;;;;6249374;28;20923;-78
2021/09/04 04:19:40;;;;;;;11.43;8.10;;;13.60;79.90;;;;;;6236344;28;20416;-78
2021/09/04 04:22:42;;;;;;;12.43;9.60;;;13.50;80.50;;;;;;6244788;28;21102;-78
2021/09/04 04:25:43;;;;;;;10.23;7.47;;;13.50;80.70;;;;;;6220450;28;20517;-78
2021/09/04 04:28:47;;;;;;;9.00;7.78;;;13.40;80.80;;;;;;6224495;28;20945;-78
2021/09/04 04:31:48;;;;;;;9.20;8.27;;;13.40;80.60;;;;;;6224660;28;20543;-78
2021/09/04 04:34:50;;;;;;;13.67;9.17;;;13.50;80.10;;;;;;6223044;28;20918;-78
2021/09/04 04:37:52;;;;;;;9.13;7.88;;;13.40;80.10;;;;;;6222691;28;20440;-78
2021/09/04 04:40:54;;;;;;;10.95;8.15;;;13.40;80.30;;;;;;6222782;28;20496;-78
2021/09/04 04:43:57;;;;;;;7.68;6.97;;;13.30;80.10;;;;;;6222694;28;20463;-78
2021/09/04 04:46:59;;;;;;;9.50;8.50;;;13.30;80.40;;;;;;6221482;28;20732;-78
2021/09/04 04:50:01;;;;;;;11.25;7.65;;;13.30;80.60;;;;;;6230032;28;20412;-78
2021/09/04 04:53:03;;;;;;;9.27;7.37;;;13.30;80.30;;;;;;6244700;28;20430;-78
2021/09/04 04:56:05;;;;;;;9.60;8.02;;;13.30;80.30;;;;;;6246610;28;20434;-78
2021/09/04 04:59:08;;;;;;;15.45;8.07;;;13.30;80.20;;;;;;6246337;28;20498;-77
2021/09/04 05:02:10;;;;;;;11.90;8.43;;;13.30;80.20;;;;;;6246165;28;20556;-77
2021/09/04 05:05:12;;;;;;;9.93;8.57;;;13.30;80.30;;;;;;6246192;28;20462;-77
2021/09/04 05:08:14;;;;;;;9.00;8.10;;;13.30;79.80;;;;;;6246491;28;20514;-77
2021/09/04 05:11:16;;;;;;;9.80;8.77;;;13.20;79.30;;;;;;6245682;28;20898;-77
2021/09/04 05:14:19;;;;;;;10.02;8.98;;;13.30;79.50;;;;;;6247806;28;20965;-78
2021/09/04 05:17:21;;;;;;;9.70;8.70;;;13.30;79.50;;;;;;6247711;28;20489;-78
2021/09/04 05:20:22;;;;;;;9.35;8.23;;;13.30;79.50;;;;;;6232787;28;20981;-79
2021/09/04 05:23:24;;;;;;;9.02;7.70;;;13.40;80.20;;;;;;6251664;28;20437;-78
2021/09/04 05:26:26;;;;;;;10.45;8.35;;;13.50;80.50;;;;;;6227080;28;20496;-78
2021/09/04 05:29:30;;;;;;;11.40;8.27;;;13.50;79.80;;;;;;6226543;28;20499;-78
2021/09/04 05:32:32;;;;;;;8.53;7.47;;;13.60;78.90;;;;;;6226623;28;20436;-78
2021/09/04 05:35:34;;;;;;;8.55;7.47;;;13.70;78.80;;;;;;6226449;28;20499;-77
2021/09/04 05:38:36;;;;;;;11.07;8.02;;;13.80;79.40;;;;;;6225775;28;20442;-78
2021/09/04 05:41:38;;;;;;;10.93;8.10;;;13.90;79.30;;;;;;6225752;28;20424;-78
2021/09/04 05:44:41;;;;;;;7.88;7.07;;;14.10;79.30;;;;;;6225437;28;21001;-77
2021/09/04 05:47:43;;;;;;;9.90;8.38;;;14.30;77.70;;;;;;6224621;28;20511;-78
2021/09/04 05:50:44;;;;;;;8.70;7.38;;;14.40;77.70;;;;;;6237451;28;21011;-77
2021/09/04 05:53:46;;;;;;;8.25;6.63;;;14.50;77.60;;;;;;6251229;28;20558;-77
2021/09/04 05:56:48;;;;;;;10.63;8.10;;;14.70;77.50;;;;;;6251091;28;20430;-78
2021/09/04 05:59:51;;;;;;;9.98;7.80;;;15.00;76.50;;;;;;6249370;28;20419;-78
2021/09/04 06:02:53;;;;;;;8.18;7.18;;;15.40;76.40;;;;;;6250418;28;20453;-78
2021/09/04 06:05:57;;;;;;;7.70;6.50;;;15.40;75.80;;;;;;6249573;28;20407;-78
2021/09/04 06:09:02;;;;;;;10.23;7.78;;;15.70;75.40;;;;;;6249673;28;20435;-78
2021/09/04 06:12:04;;;;;;;7.50;5.82;;;15.80;74.70;;;;;;6249703;28;20481;-77
2021/09/04 06:15:08;;;;;;;12.93;6.43;;;16.00;74.70;;;;;;6247991;28;20415;-78
2021/09/04 06:18:11;;;;;;;8.80;6.40;;;16.20;74.10;;;;;;6241592;28;20444;-78
2021/09/04 06:21:13;;;;;;;9.18;7.40;;;16.50;73.70;;;;;;6240161;28;20442;-78
2021/09/04 06:24:15;;;;;;;12.43;7.20;;;16.70;73.80;;;;;;6248353;28;20513;-76
2021/09/04 06:27:16;;;;;;;9.48;8.23;;;17.00;72.90;;;;;;6223990;28;20429;-76
2021/09/04 06:30:20;;;;;;;10.32;9.32;;;17.20;72.80;;;;;;6219830;28;20413;-76
2021/09/04 06:33:21;;;;;;;10.57;9.27;;;17.40;72.80;;;;;;6220331;28;20423;-76
2021/09/04 06:36:23;;;;;;;11.05;8.98;;;17.70;72.40;;;;;;6222148;28;20523;-76
2021/09/04 06:39:25;;;;;;;9.55;8.50;;;17.90;71.20;;;;;;6221216;28;20421;-76
2021/09/04 06:42:27;;;;;;;10.90;8.48;;;18.10;71.20;;;;;;6221114;28;20420;-76
2021/09/04 06:45:30;;;;;;;10.90;8.60;;;18.40;70.80;;;;;;6260409;23;20410;-76
2021/09/04 06:48:32;;;;;;;10.50;8.13;;;18.60;69.80;;;;;;6255731;28;20563;-78
2021/09/04 06:51:33;;;;;;;10.30;9.13;;;18.80;69.20;;;;;;6246874;28;20558;-78
2021/09/04 06:54:35;;;;;;;9.10;8.20;;;19.00;68.40;;;;;;6252717;28;20862;-77
2021/09/04 06:57:37;;;;;;;11.65;8.82;;;19.20;67.90;;;;;;6252004;28;20415;-77
2021/09/04 07:00:40;;;;;;;11.13;8.30;;;19.30;67.20;;;;;;6251382;28;20439;-78
2021/09/04 07:03:42;;;;;;;11.05;7.55;;;19.50;66.90;;;;;;6249991;28;20490;-78
2021/09/04 07:06:44;;;;;;;9.40;8.40;;;19.60;66.40;;;;;;6249891;28;20490;-79
2021/09/04 07:09:46;;;;;;;8.60;7.68;;;20.00;66.40;;;;;;6251819;28;20489;-79
2021/09/04 07:12:47;;;;;;;7.72;6.38;;;20.10;65.20;;;;;;6251100;28;20796;-77
2021/09/04 07:15:51;;;;;;;9.35;7.90;;;20.30;63.80;;;;;;6250953;28;20561;-78
2021/09/04 07:18:52;;;;;;;9.00;8.10;;;20.60;63.50;;;;;;6245424;28;20972;-77
2021/09/04 07:21:54;;;;;;;8.60;7.70;;;20.80;62.90;;;;;;6248878;28;20502;-78
2021/09/04 07:24:56;;;;;;;10.15;8.05;;;20.90;62.50;;;;;;6251041;28;20489;-80
2021/09/04 07:27:58;;;;;;;7.72;6.88;;;21.10;62.10;;;;;;6232227;28;20520;-78
2021/09/04 07:31:01;;;;;;;12.38;8.65;;;21.20;62.00;;;;;;6221911;28;20448;-77
2021/09/04 07:34:03;;;;;;;7.97;6.60;;;21.40;61.70;;;;;;6224446;28;20541;-77
2021/09/04 07:37:05;;;;;;;11.02;7.05;;;21.50;61.70;;;;;;6225543;28;20515;-76
2021/09/04 07:40:08;;;;;;;8.25;7.32;;;21.60;61.20;;;;;;6225854;28;20498;-78
2021/09/04 07:43:10;;;;;;;8.48;7.47;;;21.80;61.20;;;;;;6225912;28;20492;-77
2021/09/04 07:46:13;;;;;;;8.00;6.13;;;22.00;61.40;;;;;;6224813;28;20459;-78
2021/09/04 07:49:15;;;;;;;9.77;6.87;;;22.10;60.10;;;;;;6229674;28;20408;-77
2021/09/04 07:52:17;;;;;;;8.65;7.70;;;22.30;59.60;;;;;;6198025;28;20561;-78
2021/09/04 07:55:19;;;;;;;11.77;7.20;;;22.50;59.50;;;;;;6197490;28;20426;-77
2021/09/04 07:58:21;;;;;;;7.40;6.65;;;22.60;59.50;;;;;;6197532;28;20588;-77
2021/09/04 08:01:24;;;;;;;9.82;8.02;;;22.80;58.40;;;;;;6197645;28;20428;-77
2021/09/04 08:04:26;;;;;;;8.20;7.28;;;23.00;58.30;;;;;;6197064;28;20482;-76
2021/09/04 08:07:28;;;;;;;8.52;7.22;;;23.10;57.20;;;;;;6196987;28;20427;-77
2021/09/04 08:10:30;;;;;;;11.20;7.75;;;23.20;57.30;;;;;;6197646;28;20422;-78
2021/09/04 08:13:32;;;;;;;12.32;8.15;;;23.20;56.80;;;;;;6197534;28;20522;-78
2021/09/04 08:16:36;;;;;;;11.77;7.03;;;23.20;57.60;;;;;;6198209;28;20521;-77
2021/09/04 08:19:38;;;;;;;11.23;6.85;;;23.30;57.50;;;;;;6226810;28;20407;-77
2021/09/04 08:22:40;;;;;;;8.93;7.57;;;23.30;57.10;;;;;;6246631;28;20542;-77
2021/09/04 08:25:42;;;;;;;7.90;7.10;;;23.40;57.00;;;;;;6245725;28;20493;-77
2021/09/04 08:28:44;;;;;;;9.00;7.63;;;23.60;56.70;;;;;;6231902;28;20495;-77
2021/09/04 08:31:47;;;;;;;8.57;7.77;;;23.70;56.10;;;;;;6216819;28;20491;-77
2021/09/04 08:34:49;;;;;;;8.35;7.03;;;23.70;55.70;;;;;;6221106;28;20492;-77
2021/09/04 08:37:53;;;;;;;8.07;7.03;;;23.70;56.00;;;;;;6221212;28;20889;-78
2021/09/04 08:40:55;;;;;;;9.45;8.15;;;23.80;56.00;;;;;;6221877;28;20820;-77
2021/09/04 08:43:58;;;;;;;7.82;6.93;;;23.90;55.60;;;;;;6223746;28;20523;-77
2021/09/04 08:47:02;;;;;;;8.85;7.63;;;24.10;55.30;;;;;;6222452;28;20431;-78
2021/09/04 08:50:05;;;;;;;8.50;6.78;;;24.30;54.60;;;;;;6236103;28;20454;-77
2021/09/04 08:53:07;;;;;;;7.82;7.05;;;24.60;54.20;;;;;;6246680;28;20513;-77
2021/09/04 08:56:10;;;;;;;8.05;7.18;;;24.80;55.00;;;;;;6249270;28;20439;-79
2021/09/04 08:59:11;;;;;;;8.07;6.78;;;24.70;53.40;;;;;;6252470;28;21173;-78
2021/09/04 09:02:15;;;;;;;8.07;7.28;;;24.80;53.70;;;;;;6253321;28;20561;-78
2021/09/04 09:05:16;;;;;;;9.43;7.25;;;25.10;52.80;;;;;;6252308;28;20490;-77
2021/09/04 09:08:23;;;;;;;9.02;7.97;;;25.10;53.10;;;;;;6252700;28;20466;-77
2021/09/04 09:11:25;;;;;;;9.43;7.83;;;25.00;53.30;;;;;;6252916;28;20482;-78
2021/09/04 09:14:28;;;;;;;9.68;8.05;;;25.00;53.70;;;;;;6252659;28;20461;-78
2021/09/04 09:17:31;;;;;;;8.25;7.40;;;25.10;52.00;;;;;;6250364;28;20415;-77
2021/09/04 09:20:34;;;;;;;9.88;7.90;;;25.00;52.90;;;;;;6243016;28;20959;-76
2021/09/04 09:23:37;;;;;;;11.00;7.55;;;25.00;52.70;;;;;;6251886;28;20986;-78
2021/09/04 09:26:54;;;;;;;7.25;6.47;;;25.30;52.70;;;;;;6252834;28;20419;-77
2021/09/04 09:29:55;;;;;;;12.88;7.38;;;25.60;51.00;;;;;;6234620;28;20451;-77
2021/09/04 09:32:59;;;;;;;7.30;6.55;;;25.60;51.10;;;;;;6223040;28;20903;-78
2021/09/04 09:36:03;;;;;;;7.88;6.15;;;25.60;51.90;;;;;;6227125;28;20472;-78
2021/09/04 09:39:11;;;;;;;9.43;7.33;;;25.60;51.90;;;;;;6225735;28;20987;-78
2021/09/04 09:42:14;;;;;;;8.65;7.47;;;25.60;51.50;;;;;;6226149;28;20452;-79
2021/09/04 09:45:16;;;;;;;7.53;6.45;;;25.80;52.40;;;;;;6225031;28;20463;-78
2021/09/04 09:48:21;;;;;;;9.55;7.30;;;25.90;51.20;;;;;;6234537;28;20518;-77
2021/09/04 09:51:23;;;;;;;8.20;7.32;;;26.10;50.70;;;;;;6242904;28;20502;-76
2021/09/04 09:54:26;;;;;;;8.00;6.95;;;26.40;50.00;;;;;;6250115;28;20501;-78
2021/09/04 09:57:30;;;;;;;7.47;6.68;;;26.50;50.30;;;;;;6249800;28;20449;-78
2021/09/04 10:00:32;;;;;;;7.67;6.87;;;26.70;49.60;;;;;;6250955;28;20437;-77
2021/09/04 10:03:36;;;;;;;11.05;6.90;;;26.90;47.80;;;;;;6249205;28;20490;-77
2021/09/04 10:06:39;;;;;;;10.18;6.85;;;26.70;48.20;;;;;;6250354;28;20458;-76
2021/09/04 10:09:42;;;;;;;7.60;6.75;;;26.80;49.30;;;;;;6248652;28;20892;-77
2021/09/04 10:12:44;;;;;;;8.13;6.75;;;27.00;48.40;;;;;;6250051;28;20492;-79
2021/09/04 10:15:49;;;;;;;9.00;6.77;;;26.70;47.60;;;;;;6254530;28;20442;-77
2021/09/04 10:18:53;;;;;;;12.07;6.70;;;27.30;47.40;;;;;;6248242;28;20830;-78
2021/09/04 10:22:00;;;;;;;8.82;6.53;;;27.40;47.40;;;;;;6248849;28;20513;-78
2021/09/04 10:25:14;;;;;;;8.00;7.10;;;27.60;47.50;;;;;;6251802;28;20430;-79
2021/09/04 10:28:16;;;;;;;7.47;6.68;;;27.70;47.40;;;;;;6252163;28;20524;-79
2021/09/04 10:31:38;;;;;;;8.63;6.65;;;28.00;46.90;;;;;;6228727;28;20421;-79
2021/09/04 10:34:44;;;;;;;8.90;6.20;;;27.80;46.60;;;;;;6227244;28;20496;-79
2021/09/04 10:37:46;;;;;;;7.57;5.88;;;28.30;46.10;;;;;;6226493;28;20511;-78
2021/09/04 10:40:49;;;;;;;9.90;6.53;;;28.80;46.00;;;;;;6226765;28;20428;-80
2021/09/04 10:43:53;;;;;;;23.98;6.20;;;29.10;44.60;;;;;;6226420;28;20420;-78
2021/09/04 10:46:55;;;;;;;7.78;6.57;;;29.40;44.40;;;;;;6226769;28;20428;-79
2021/09/04 10:50:14;;;;;;;6.97;6.20;;;29.60;44.30;;;;;;6238740;28;20510;-79
2021/09/04 10:53:16;;;;;;;7.70;5.82;;;29.70;43.80;;;;;;6249949;28;20415;-78
2021/09/04 10:56:20;;;;;;;7.38;5.97;;;29.60;42.80;;;;;;6250511;28;20462;-80
2021/09/04 10:59:51;;;;;;;8.37;6.40;;;29.70;43.90;;;;;;6250461;28;20458;-80
2021/09/04 11:03:03;;;;;;;7.80;6.10;;;29.80;43.00;;;;;;6249375;28;20553;-80
2021/09/04 11:06:08;;;;;;;9.20;6.13;;;29.60;42.80;;;;;;6251110;28;20434;-78
2021/09/04 11:09:13;;;;;;;8.50;5.85;;;29.60;42.90;;;;;;6252648;28;20518;-78
2021/09/04 11:12:15;;;;;;;9.10;5.83;;;29.70;43.40;;;;;;6251807;28;20932;-79
2021/09/04 11:15:24;;;;;;;6.78;6.10;;;29.80;42.20;;;;;;6250342;28;20427;-77
2021/09/04 11:18:45;;;;;;;7.20;5.93;;;29.70;43.30;;;;;;6248042;28;20419;-78
2021/09/04 11:21:51;;;;;;;6.87;6.17;;;29.90;42.10;;;;;;6246042;28;20770;-77
2021/09/04 11:24:56;;;;;;;7.73;6.27;;;30.00;41.40;;;;;;6249441;28;20883;-78
2021/09/04 11:27:57;;;;;;;6.00;5.40;;;29.40;42.20;;;;;;6250266;28;20454;-76
2021/09/04 11:31:00;;;;;;;7.50;5.43;;;29.30;43.20;;;;;;6243922;28;20431;-77
2021/09/04 11:34:02;;;;;;;6.27;5.67;;;29.70;43.30;;;;;;6217022;28;21285;-78
2021/09/04 11:37:33;;;;;;;7.70;5.57;;;30.10;42.40;;;;;;6225031;28;20507;-79
2021/09/04 11:40:35;;;;;;;9.07;5.17;;;30.40;41.60;;;;;;6225025;28;20483;-79
2021/09/04 11:43:37;;;;;;;6.30;4.90;;;30.30;40.40;;;;;;6225127;28;21059;-78
2021/09/04 11:46:39;;;;;;;7.97;5.22;;;30.80;40.30;;;;;;6224073;28;20444;-78
2021/09/04 11:49:45;;;;;;;8.82;6.25;;;31.00;39.00;;;;;;6235997;28;20510;-78
2021/09/04 11:52:49;;;;;;;7.93;5.50;;;30.70;38.40;;;;;;6250239;28;21011;-78
2021/09/04 11:55:52;;;;;;;5.60;4.75;;;30.90;39.90;;;;;;6249232;28;20422;-77
2021/09/04 11:59:04;;;;;;;5.13;4.40;;;31.50;37.90;;;;;;6248261;28;20430;-79
2021/09/04 12:02:07;;;;;;;5.35;4.85;;;32.10;37.00;;;;;;6249213;28;20905;-79
2021/09/04 12:05:10;;;;;;;5.15;4.65;;;32.10;35.30;;;;;;6248870;28;20797;-78
2021/09/04 12:08:15;;;;;;;8.77;5.22;;;31.60;36.80;;;;;;6249177;28;20526;-78
2021/09/04 12:11:17;;;;;;;6.05;4.43;;;31.50;37.00;;;;;;6244555;28;20565;-77
2021/09/04 12:14:19;;;;;;;8.63;5.00;;;31.30;36.50;;;;;;6245545;28;20474;-77
2021/09/04 12:17:21;;;;;;;5.68;4.82;;;31.40;36.90;;;;;;6245239;28;20510;-77
2021/09/04 12:20:32;;;;;;;6.18;4.43;;;31.80;37.00;;;;;;6239764;28;20518;-77
2021/09/04 12:23:45;;;;;;;5.18;4.68;;;32.20;35.00;;;;;;6247764;28;20451;-78
2021/09/04 12:26:50;;;;;;;4.88;4.32;;;32.00;34.70;;;;;;6246865;28;20542;-78
2021/09/04 12:30:01;;;;;;;4.85;4.35;;;31.70;34.50;;;;;;6247143;28;20422;-78
2021/09/04 12:33:10;;;;;;;5.93;4.28;;;31.40;34.90;;;;;;6228427;28;20533;-79
2021/09/04 12:36:12;;;;;;;5.05;4.43;;;31.60;34.80;;;;;;6217204;28;20436;-78
2021/09/04 12:39:19;;;;;;;6.77;4.93;;;32.00;35.00;;;;;;6223043;28;20448;-78
2021/09/04 12:42:21;;;;;;;4.68;4.28;;;31.80;33.40;;;;;;6221924;28;20952;-77
2021/09/04 12:45:23;;;;;;;4.95;4.25;;;31.10;35.00;;;;;;6259983;22;20407;-77
2021/09/04 12:48:30;;;;;;;5.43;4.15;;;31.00;34.60;;;;;;6244641;28;20485;-78
2021/09/04 12:51:34;;;;;;;6.57;4.17;;;31.20;35.30;;;;;;6238823;28;20427;-78
2021/09/04 12:54:39;;;;;;;5.05;4.20;;;31.50;35.20;;;;;;6232857;28;20944;-77
2021/09/04 12:57:41;;;;;;;7.00;4.75;;;31.20;34.70;;;;;;6208952;28;20552;-77
2021/09/04 13:00:43;;;;;;;7.50;4.57;;;31.30;34.70;;;;;;6209950;28;20438;-78
2021/09/04 13:03:45;;;;;;;4.47;4.07;;;31.50;33.50;;;;;;6197037;28;20545;-77
2021/09/04 13:06:47;;;;;;;4.35;3.95;;;31.80;33.40;;;;;;6194439;28;20501;-77
2021/09/04 13:09:52;;;;;;;4.53;4.10;;;32.00;32.80;;;;;;6193954;28;21793;-77
2021/09/04 13:12:54;;;;;;;4.43;4.03;;;32.30;32.90;;;;;;6194743;28;20525;-77
2021/09/04 13:15:56;;;;;;;7.15;3.95;;;32.30;31.10;;;;;;6195126;28;20521;-77
2021/09/04 13:18:58;;;;;;;5.30;4.60;;;31.90;31.40;;;;;;6204266;28;20505;-77
2021/09/04 13:22:00;;;;;;;4.93;3.83;;;31.70;31.10;;;;;;6217112;28;20480;-77
2021/09/04 13:25:04;;;;;;;4.32;3.33;;;31.60;33.50;;;;;;6220050;28;20963;-77
2021/09/04 13:28:06;;;;;;;4.40;4.00;;;31.60;31.70;;;;;;6221212;28;20517;-77
2021/09/04 13:31:08;;;;;;;6.43;4.28;;;31.70;31.50;;;;;;6220752;28;20421;-77
2021/09/04 13:34:10;;;;;;;4.30;3.90;;;32.00;32.20;;;;;;6212114;28;20805;-77
2021/09/04 13:37:12;;;;;;;5.63;3.42;;;32.20;32.70;;;;;;6197700;28;20422;-77
2021/09/04 13:40:16;;;;;;;4.60;3.83;;;32.00;32.10;;;;;;6194974;28;20641;-77
2021/09/04 13:43:17;;;;;;;5.32;3.92;;;31.80;32.60;;;;;;6196894;28;20429;-77
2021/09/04 13:46:19;;;;;;;4.72;3.55;;;32.00;32.20;;;;;;6198790;28;20442;-77
2021/09/04 13:49:21;;;;;;;5.40;3.90;;;32.30;32.00;;;;;;6207817;28;20488;-77
2021/09/04 13:52:23;;;;;;;5.30;4.80;;;32.40;31.60;;;;;;6223655;28;20538;-77
2021/09/04 13:55:26;;;;;;;4.72;3.53;;;32.30;31.00;;;;;;6221906;28;20421;-77
2021/09/04 13:58:28;;;;;;;3.95;3.17;;;32.30;31.30;;;;;;6223027;28;20510;-77
2021/09/04 14:01:30;;;;;;;4.18;3.78;;;32.20;31.20;;;;;;6222657;28;20412;-76
2021/09/04 14:04:32;;;;;;;4.13;3.73;;;31.90;31.30;;;;;;6223066;28;20519;-78
2021/09/04 14:07:33;;;;;;;3.55;3.25;;;31.50;31.60;;;;;;6222774;28;20439;-77
2021/09/04 14:10:37;;;;;;;4.50;3.78;;;31.20;32.00;;;;;;6222750;28;20519;-77
2021/09/04 14:13:38;;;;;;;4.10;3.70;;;31.30;32.50;;;;;;6222397;28;20496;-77
2021/09/04 14:16:40;;;;;;;5.03;3.47;;;31.50;30.90;;;;;;6222878;28;20535;-77
2021/09/04 14:19:42;;;;;;;3.28;2.95;;;31.50;30.40;;;;;;6214696;28;20432;-77
2021/09/04 14:22:44;;;;;;;3.60;3.30;;;31.70;30.90;;;;;;6222725;28;20543;-78
2021/09/04 14:25:47;;;;;;;5.05;3.42;;;31.90;30.30;;;;;;6205555;28;20414;-77
2021/09/04 14:28:49;;;;;;;3.80;3.33;;;32.20;31.10;;;;;;6181826;28;20591;-77
2021/09/04 14:31:51;;;;;;;3.90;3.03;;;32.30;29.50;;;;;;6194748;28;20423;-79
2021/09/04 14:34:53;;;;;;;3.28;2.97;;;31.90;29.70;;;;;;6178913;28;20569;-78
2021/09/04 14:37:58;;;;;;;4.90;3.50;;;31.50;30.10;;;;;;6174911;28;20424;-78
2021/09/04 14:41:01;;;;;;;4.28;3.50;;;31.30;31.40;;;;;;6174870;28;20858;-77
2021/09/04 14:44:03;;;;;;;7.50;3.80;;;31.40;30.40;;;;;;6174412;28;20984;-77
2021/09/04 14:47:05;;;;;;;4.03;3.63;;;31.20;31.30;;;;;;6210267;28;20571;-77
2021/09/04 14:50:11;;;;;;;3.88;3.28;;;31.20;31.20;;;;;;6214285;28;20496;-77
2021/09/04 14:53:13;;;;;;;3.88;3.47;;;31.40;30.10;;;;;;6222373;28;20412;-77
2021/09/04 14:56:16;;;;;;;4.30;3.77;;;31.50;30.90;;;;;;6221245;28;20516;-77
2021/09/04 14:59:18;;;;;;;4.03;3.63;;;31.70;30.90;;;;;;6221935;28;20421;-77
2021/09/04 15:02:20;;;;;;;4.43;3.10;;;31.80;30.00;;;;;;6221873;28;20506;-77
2021/09/04 15:05:22;;;;;;;4.65;3.75;;;31.30;30.60;;;;;;6221249;28;20892;-77
2021/09/04 15:08:25;;;;;;;5.38;3.33;;;30.80;30.10;;;;;;6221865;28;20514;-77
2021/09/04 15:11:28;;;;;;;5.13;3.53;;;30.40;30.80;;;;;;6221779;28;20937;-77
2021/09/04 15:14:30;;;;;;;3.90;3.43;;;30.20;31.20;;;;;;6221640;28;20416;-77
2021/09/04 15:17:32;;;;;;;4.95;3.45;;;30.10;31.90;;;;;;6222428;28;20486;-77
2021/09/04 15:20:34;;;;;;;5.05;3.80;;;30.20;32.00;;;;;;6214829;28;20860;-77
2021/09/04 15:23:39;;;;;;;5.93;3.13;;;30.10;32.40;;;;;;6221813;28;20513;-77
2021/09/04 15:26:44;;;;;;;4.30;3.22;;;29.80;30.30;;;;;;6224712;28;20503;-78
2021/09/04 15:29:46;;;;;;;4.88;3.65;;;29.60;30.10;;;;;;6226302;28;20416;-79
2021/09/04 15:32:48;;;;;;;4.00;3.08;;;29.50;31.10;;;;;;6229387;28;20526;-79
2021/09/04 15:35:49;;;;;;;4.15;3.00;;;29.40;32.30;;;;;;6218566;28;20429;-79
2021/09/04 15:38:51;;;;;;;3.35;2.92;;;29.40;34.70;;;;;;6251133;28;20401;-78
2021/09/04 15:41:54;;;;;;;4.63;3.90;;;29.40;31.50;;;;;;6245347;28;20493;-79
2021/09/04 15:44:56;;;;;;;4.40;3.45;;;29.20;32.20;;;;;;6248994;28;20435;-79
2021/09/04 15:47:58;;;;;;;4.82;3.00;;;28.90;31.90;;;;;;6217979;28;20456;-79